Time;durP1;ratioP1;P1;durP2;ratioP2;P2;SDS_P1;SDS_P2;PMS_P1;PMS_P2;Temp;Humidity;BMP_temperature;BMP_pressure;BME280_temperature;BME280_humidity;BME280_pressure;Samples;Min_cycle;Max_cycle;Signal;HPM_P1;HPM_P2
2023/03/24 00:00:17;;;;;;;3.42;1.33;;;10.50;99.90;;;;;;5014913;28;20191;-83
2023/03/24 00:02:45;;;;;;;5.18;1.55;;;10.60;99.90;;;;;;5016302;28;20167;-83
2023/03/24 00:05:13;;;;;;;3.90;1.35;;;10.60;99.90;;;;;;5015040;28;20532;-83
2023/03/24 00:07:39;;;;;;;3.22;1.40;;;10.60;99.90;;;;;;5016336;28;20259;-82
2023/03/24 00:10:10;;;;;;;3.05;1.35;;;10.70;99.90;;;;;;5016224;28;20318;-83
2023/03/24 00:12:37;;;;;;;2.85;1.48;;;10.70;99.90;;;;;;5031456;28;20588;-82
2023/03/24 00:15:09;;;;;;;1.73;1.13;;;10.80;99.90;;;;;;5035717;28;20516;-83
2023/03/24 00:17:35;;;;;;;4.65;1.52;;;10.80;99.90;;;;;;5035928;28;20170;-83
2023/03/24 00:20:11;;;;;;;6.05;1.75;;;10.80;99.90;;;;;;5035678;28;20215;-83
2023/03/24 00:22:41;;;;;;;3.88;1.50;;;10.80;99.90;;;;;;5035815;28;20155;-83
2023/03/24 00:25:10;;;;;;;4.60;1.73;;;10.80;99.90;;;;;;5035640;28;20214;-84
2023/03/24 00:30:12;;;;;;;4.13;1.50;;;10.80;99.90;;;;;;5333121;22;20513;-82
2023/03/24 00:32:38;;;;;;;3.50;1.30;;;10.90;99.90;;;;;;5015794;28;20260;-83
2023/03/24 00:35:09;;;;;;;2.72;1.40;;;10.80;99.90;;;;;;5015894;28;20238;-83
2023/03/24 00:37:36;;;;;;;3.22;1.20;;;10.80;99.90;;;;;;5015790;28;20178;-84
2023/03/24 00:40:06;;;;;;;4.57;1.45;;;10.90;99.90;;;;;;5015431;28;20249;-83
2023/03/24 00:42:36;;;;;;;3.13;1.60;;;11.00;99.90;;;;;;5015681;28;20159;-83
2023/03/24 00:45:04;;;;;;;2.67;1.77;;;11.10;99.90;;;;;;5015213;28;20175;-83
2023/03/24 00:47:35;;;;;;;2.83;1.30;;;11.00;99.90;;;;;;5015524;28;20182;-84
2023/03/24 00:50:06;;;;;;;5.68;1.48;;;10.90;99.90;;;;;;5015410;28;20167;-82
2023/03/24 00:52:33;;;;;;;2.78;1.45;;;10.90;99.90;;;;;;4997799;28;20230;-82
2023/03/24 00:55:00;;;;;;;5.35;1.75;;;10.90;99.90;;;;;;5015352;28;20190;-82
2023/03/24 00:57:28;;;;;;;3.47;1.40;;;11.00;99.90;;;;;;5015165;28;20187;-83
2023/03/24 00:59:57;;;;;;;3.97;1.40;;;11.00;99.90;;;;;;5014317;28;20241;-83
2023/03/24 01:02:24;;;;;;;3.55;1.40;;;11.00;99.90;;;;;;5015308;28;20195;-83
2023/03/24 01:04:56;;;;;;;4.53;1.35;;;11.10;99.90;;;;;;5014996;28;20183;-83
2023/03/24 01:07:23;;;;;;;2.55;1.25;;;11.00;99.90;;;;;;5015087;28;20600;-83
2023/03/24 01:09:58;;;;;;;5.22;1.95;;;11.10;99.90;;;;;;5014875;28;20613;-82
2023/03/24 01:12:27;;;;;;;2.97;1.23;;;11.00;99.90;;;;;;5015023;28;20598;-83
2023/03/24 01:14:53;;;;;;;7.38;1.67;;;11.10;99.90;;;;;;5014981;28;20168;-83
2023/03/24 01:17:24;;;;;;;2.85;1.45;;;11.10;99.90;;;;;;4997466;28;20610;-83
2023/03/24 01:19:51;;;;;;;2.40;1.58;;;11.10;99.90;;;;;;5014781;28;20221;-84
2023/03/24 01:22:17;;;;;;;4.05;1.90;;;11.10;99.90;;;;;;4997142;28;20253;-82
2023/03/24 01:24:43;;;;;;;4.78;2.20;;;11.10;99.90;;;;;;5014816;28;20600;-82
2023/03/24 01:27:09;;;;;;;3.03;2.00;;;11.10;99.90;;;;;;5014874;28;20180;-83
2023/03/24 01:29:36;;;;;;;4.63;2.22;;;11.20;99.90;;;;;;5006311;28;20227;-91
2023/03/24 01:32:01;;;;;;;4.15;2.38;;;11.10;99.90;;;;;;4976592;28;20215;-83
2023/03/24 01:34:27;;;;;;;6.60;2.20;;;11.00;99.90;;;;;;4977618;28;20202;-81
2023/03/24 01:36:53;;;;;;;5.38;2.45;;;11.10;99.90;;;;;;4994988;28;20175;-82
2023/03/24 01:39:18;;;;;;;4.45;2.42;;;11.10;99.90;;;;;;4994915;28;20564;-82
2023/03/24 01:41:44;;;;;;;4.38;2.28;;;11.00;99.90;;;;;;4994360;28;20669;-82
2023/03/24 01:44:29;;;;;;;5.40;2.58;;;11.10;99.90;;;;;;4994743;28;20587;-85
2023/03/24 01:46:56;;;;;;;4.75;2.70;;;11.10;99.90;;;;;;4995012;28;20168;-83
2023/03/24 01:49:25;;;;;;;6.65;2.83;;;11.10;99.90;;;;;;4994959;28;20191;-82
2023/03/24 01:51:55;;;;;;;5.43;3.03;;;11.10;99.90;;;;;;4994434;28;20614;-82
2023/03/24 01:54:27;;;;;;;5.38;2.83;;;11.10;99.90;;;;;;4994770;28;20171;-82
2023/03/24 01:56:58;;;;;;;5.30;2.78;;;11.10;99.90;;;;;;4977262;28;20191;-83
2023/03/24 01:59:29;;;;;;;8.18;2.85;;;11.20;99.90;;;;;;5000362;28;20506;-82
2023/03/24 02:02:01;;;;;;;4.45;2.47;;;11.10;99.90;;;;;;4996217;28;20222;-82
2023/03/24 02:04:33;;;;;;;3.53;2.50;;;11.20;99.90;;;;;;4997984;28;20255;-83
2023/03/24 02:07:11;;;;;;;5.88;2.50;;;11.20;99.90;;;;;;5014209;28;20233;-82
2023/03/24 02:09:37;;;;;;;4.90;2.47;;;11.20;99.90;;;;;;5014004;28;20654;-82
2023/03/24 02:12:02;;;;;;;3.83;2.05;;;11.30;99.90;;;;;;5013897;28;20202;-83
2023/03/24 02:14:29;;;;;;;3.40;2.10;;;11.20;99.90;;;;;;5013827;28;20171;-81
2023/03/24 02:17:25;;;;;;;4.20;2.40;;;11.30;99.90;;;;;;5013388;28;20183;-81
2023/03/24 02:20:15;;;;;;;4.80;2.40;;;11.30;99.90;;;;;;5013754;28;20198;-82
2023/03/24 02:23:13;;;;;;;3.35;2.60;;;11.20;99.90;;;;;;5014044;28;20179;-82
2023/03/24 02:26:12;;;;;;;2.65;2.00;;;11.30;99.90;;;;;;5012816;28;20464;-83
2023/03/24 02:28:55;;;;;;;5.57;2.50;;;11.30;99.90;;;;;;5012304;28;20194;-82
2023/03/24 02:31:55;;;;;;;4.32;2.58;;;11.40;99.90;;;;;;4993644;28;20176;-82
2023/03/24 02:34:41;;;;;;;3.70;2.65;;;11.40;99.90;;;;;;4994635;28;20165;-84
2023/03/24 02:37:06;;;;;;;5.75;2.60;;;11.40;99.90;;;;;;4994177;28;20191;-85
2023/03/24 02:39:36;;;;;;;5.13;2.90;;;11.30;99.90;;;;;;4976673;28;20180;-82
2023/03/24 02:42:40;;;;;;;4.93;3.05;;;11.30;99.90;;;;;;4976229;28;20191;-83
2023/03/24 02:45:11;;;;;;;3.50;2.83;;;11.40;99.90;;;;;;4993906;28;20218;-82
2023/03/24 02:48:07;;;;;;;4.60;2.95;;;11.40;99.90;;;;;;4976699;28;20184;-89
2023/03/24 02:50:40;;;;;;;4.22;2.75;;;11.30;99.90;;;;;;4976584;28;20517;-83
2023/03/24 02:53:17;;;;;;;6.50;2.83;;;11.40;99.90;;;;;;4994110;28;20623;-83
2023/03/24 02:55:55;;;;;;;6.07;3.15;;;11.40;99.90;;;;;;4994048;28;20182;-82
2023/03/24 02:58:26;;;;;;;4.53;3.10;;;11.40;99.90;;;;;;4976757;28;20239;-84
2023/03/24 03:00:58;;;;;;;5.38;2.67;;;11.30;99.90;;;;;;4993554;28;20665;-84
2023/03/24 03:03:43;;;;;;;5.40;2.88;;;11.30;99.90;;;;;;4994249;28;20175;-90
2023/03/24 03:06:39;;;;;;;5.10;3.08;;;11.40;99.90;;;;;;4994044;28;20223;-84
2023/03/24 03:09:09;;;;;;;3.78;2.92;;;11.50;99.90;;;;;;4977098;28;20176;-86
2023/03/24 03:11:35;;;;;;;4.70;2.95;;;11.60;99.90;;;;;;4976823;28;20164;-85
2023/03/24 03:14:31;;;;;;;3.85;3.10;;;11.60;99.90;;;;;;4976723;28;20175;-84
2023/03/24 03:17:17;;;;;;;4.53;3.20;;;11.60;99.90;;;;;;4991790;28;20188;-91
2023/03/24 03:19:51;;;;;;;4.82;3.40;;;11.60;99.90;;;;;;4976507;28;20176;-85
2023/03/24 03:22:23;;;;;;;5.53;3.03;;;11.70;99.90;;;;;;4976920;28;20203;-88
2023/03/24 03:24:53;;;;;;;5.45;3.70;;;11.60;99.90;;;;;;4994334;28;20195;-84
2023/03/24 03:27:26;;;;;;;6.15;3.63;;;11.60;99.90;;;;;;4976728;28;20184;-89
2023/03/24 03:29:56;;;;;;;4.97;3.47;;;11.60;99.90;;;;;;4996673;28;20313;-85
2023/03/24 03:32:28;;;;;;;7.38;3.67;;;11.60;99.90;;;;;;5017210;28;20171;-85
2023/03/24 03:35:14;;;;;;;5.72;3.45;;;11.60;99.90;;;;;;5007834;28;20208;-85
2023/03/24 03:37:50;;;;;;;4.68;3.47;;;11.60;99.90;;;;;;4997021;28;20199;-82
2023/03/24 03:40:23;;;;;;;7.35;3.20;;;11.70;99.90;;;;;;4997141;28;20204;-87
2023/03/24 03:42:51;;;;;;;7.13;2.78;;;11.70;99.90;;;;;;4997430;28;20603;-88
2023/03/24 03:45:17;;;;;;;3.42;2.63;;;11.70;99.90;;;;;;4995972;28;20585;-83
2023/03/24 03:47:42;;;;;;;12.00;2.78;;;11.60;99.90;;;;;;4997520;28;20306;-88
2023/03/24 03:50:09;;;;;;;2.95;2.65;;;11.70;99.90;;;;;;4997022;28;20616;-84
2023/03/24 03:52:38;;;;;;;2.83;2.50;;;11.70;99.90;;;;;;4997552;28;20180;-92
2023/03/24 03:55:05;;;;;;;3.25;2.38;;;11.70;99.90;;;;;;4996142;28;20279;-94
2023/03/24 03:57:33;;;;;;;2.58;2.38;;;11.70;99.90;;;;;;4997159;28;20186;-85
2023/03/24 04:00:06;;;;;;;4.97;2.85;;;11.70;99.90;;;;;;4996722;28;20200;-84
2023/03/24 04:02:57;;;;;;;6.20;3.08;;;11.70;99.90;;;;;;4997141;28;20167;-86
2023/03/24 04:05:36;;;;;;;4.85;3.00;;;11.70;99.90;;;;;;4997260;28;20168;-84
2023/03/24 04:08:26;;;;;;;3.90;3.05;;;11.80;99.90;;;;;;4997089;28;20504;-89
2023/03/24 04:11:14;;;;;;;5.10;3.13;;;11.80;99.90;;;;;;4996873;28;20219;-90
2023/03/24 04:14:01;;;;;;;3.65;2.83;;;11.70;99.90;;;;;;4996912;28;20220;-88
2023/03/24 04:16:32;;;;;;;4.45;2.88;;;11.80;99.90;;;;;;4996876;28;20610;-86
2023/03/24 04:19:11;;;;;;;6.13;2.80;;;11.90;99.90;;;;;;4996802;28;20520;-86
2023/03/24 04:21:47;;;;;;;3.47;2.97;;;11.90;99.90;;;;;;4996607;28;20258;-87
2023/03/24 04:24:42;;;;;;;4.00;2.50;;;11.90;99.90;;;;;;4997078;28;20503;-85
2023/03/24 04:27:20;;;;;;;5.93;2.70;;;11.90;99.90;;;;;;4994795;28;20221;-89
2023/03/24 04:30:05;;;;;;;3.38;2.70;;;11.90;99.90;;;;;;5003626;28;20615;-90
2023/03/24 04:32:31;;;;;;;5.68;2.80;;;11.90;99.90;;;;;;5016244;28;20171;-86
2023/03/24 04:35:02;;;;;;;4.65;3.17;;;11.90;99.90;;;;;;5016437;28;20174;-91
2023/03/24 04:37:36;;;;;;;4.15;3.13;;;11.90;99.90;;;;;;5016306;28;20167;-87
2023/03/24 04:40:09;;;;;;;5.30;2.80;;;12.00;99.90;;;;;;5015051;28;20202;-87
2023/03/24 04:42:45;;;;;;;4.53;3.05;;;11.90;99.90;;;;;;5014253;28;20176;-84
2023/03/24 04:45:13;;;;;;;5.38;3.60;;;11.90;99.90;;;;;;5015749;28;20155;-84
2023/03/24 04:47:46;;;;;;;7.63;4.03;;;11.90;99.90;;;;;;5015884;28;20255;-83
2023/03/24 04:50:13;;;;;;;8.57;3.08;;;11.90;99.90;;;;;;5015577;28;20168;-84
2023/03/24 04:52:40;;;;;;;3.95;2.90;;;11.90;99.90;;;;;;5015592;28;20199;-87
2023/03/24 04:55:26;;;;;;;4.15;2.80;;;11.90;99.90;;;;;;5015698;28;20187;-85
2023/03/24 04:57:52;;;;;;;6.93;2.90;;;11.90;99.90;;;;;;5015863;28;20191;-87
2023/03/24 05:00:18;;;;;;;4.40;2.80;;;11.90;99.90;;;;;;5002228;28;20239;-86
2023/03/24 05:02:44;;;;;;;3.40;2.30;;;11.90;99.90;;;;;;4996009;28;20238;-82
2023/03/24 05:05:10;;;;;;;3.60;2.95;;;12.00;99.90;;;;;;4996154;28;20223;-88
2023/03/24 05:07:36;;;;;;;4.07;2.75;;;12.00;99.90;;;;;;4995966;28;20179;-86
2023/03/24 05:10:02;;;;;;;3.35;2.70;;;12.10;99.90;;;;;;4995856;28;20559;-84
2023/03/24 05:12:28;;;;;;;3.22;2.72;;;12.10;99.90;;;;;;4995749;28;20262;-84
2023/03/24 05:14:53;;;;;;;4.35;2.65;;;12.20;99.90;;;;;;4995614;28;20279;-84
2023/03/24 05:17:19;;;;;;;4.85;2.85;;;12.10;99.90;;;;;;4995746;28;20519;-91
2023/03/24 05:19:45;;;;;;;4.90;2.60;;;12.10;99.90;;;;;;4995263;28;20255;-87
2023/03/24 05:22:11;;;;;;;4.72;2.42;;;12.10;99.90;;;;;;4995601;28;20663;-88
2023/03/24 05:24:36;;;;;;;2.53;2.15;;;12.10;99.90;;;;;;4995519;28;20262;-83
2023/03/24 05:27:02;;;;;;;2.70;2.38;;;12.10;99.90;;;;;;4995767;28;20168;-87
2023/03/24 05:29:28;;;;;;;5.28;2.60;;;12.10;99.90;;;;;;5001890;28;20322;-85
2023/03/24 05:31:53;;;;;;;4.10;2.30;;;12.20;99.90;;;;;;5015032;28;20622;-84
2023/03/24 05:34:21;;;;;;;3.03;2.40;;;12.10;99.90;;;;;;5015158;28;20587;-91
2023/03/24 05:36:46;;;;;;;3.33;2.60;;;12.20;99.90;;;;;;5015391;28;20596;-85
2023/03/24 05:39:12;;;;;;;2.60;2.13;;;12.30;99.90;;;;;;5015078;28;20171;-94
2023/03/24 05:41:37;;;;;;;4.35;2.60;;;12.30;99.90;;;;;;5014408;28;20257;-85
2023/03/24 05:44:03;;;;;;;3.63;2.38;;;12.30;99.90;;;;;;5015045;28;20168;-89
2023/03/24 05:46:29;;;;;;;3.28;2.53;;;12.30;99.90;;;;;;5014722;28;20167;-93
2023/03/24 05:48:55;;;;;;;3.75;2.58;;;12.40;99.90;;;;;;4997350;28;20190;-85
2023/03/24 05:51:20;;;;;;;3.38;2.40;;;12.40;99.90;;;;;;5014918;28;20175;-87
2023/03/24 05:53:46;;;;;;;2.50;2.30;;;12.40;99.90;;;;;;4997275;28;20641;-92
2023/03/24 05:56:12;;;;;;;3.20;2.60;;;12.30;99.90;;;;;;5014852;28;20155;-88
2023/03/24 05:58:38;;;;;;;6.50;2.67;;;12.40;99.90;;;;;;5014741;28;20179;-87
2023/03/24 06:01:10;;;;;;;4.55;2.50;;;12.50;99.90;;;;;;5009821;28;20203;-86
2023/03/24 06:03:39;;;;;;;3.55;2.60;;;12.40;99.90;;;;;;5014672;28;20175;-86
2023/03/24 06:06:07;;;;;;;4.20;2.75;;;12.40;99.90;;;;;;5014887;28;20254;-88
2023/03/24 06:08:33;;;;;;;4.47;3.03;;;12.40;99.90;;;;;;4997343;28;21066;-85
2023/03/24 06:11:01;;;;;;;4.28;3.00;;;12.50;99.90;;;;;;5014370;28;20254;-85
2023/03/24 06:13:28;;;;;;;5.00;2.80;;;12.50;99.90;;;;;;4997143;28;20179;-85
2023/03/24 06:15:57;;;;;;;3.72;2.92;;;12.50;99.90;;;;;;5014407;28;20170;-90
2023/03/24 06:18:25;;;;;;;4.72;2.88;;;12.60;99.90;;;;;;5014766;28;20178;-88
2023/03/24 06:20:55;;;;;;;4.10;3.10;;;12.60;99.90;;;;;;5014719;28;20261;-87
2023/03/24 06:23:24;;;;;;;5.13;3.00;;;12.60;99.90;;;;;;5014813;28;20178;-87
2023/03/24 06:25:52;;;;;;;5.78;3.13;;;12.60;99.90;;;;;;5014846;28;20174;-89
2023/03/24 06:28:18;;;;;;;5.88;3.22;;;12.60;99.90;;;;;;5014563;28;20648;-90
2023/03/24 06:30:45;;;;;;;4.32;3.08;;;12.70;99.90;;;;;;5016978;28;20261;-84
2023/03/24 06:33:12;;;;;;;4.38;2.88;;;12.60;99.90;;;;;;5034091;28;20505;-87
2023/03/24 06:35:38;;;;;;;4.57;3.20;;;12.70;99.90;;;;;;5034595;28;20182;-86
2023/03/24 06:38:05;;;;;;;4.63;3.00;;;12.80;99.90;;;;;;5034632;28;20221;-88
2023/03/24 06:40:32;;;;;;;6.72;3.40;;;12.80;99.90;;;;;;5033897;28;20213;-91
2023/03/24 06:42:57;;;;;;;5.90;3.20;;;12.80;99.90;;;;;;5034194;28;20171;-89
2023/03/24 06:45:23;;;;;;;5.68;3.33;;;12.80;99.90;;;;;;5033981;28;20495;-88
2023/03/24 06:47:54;;;;;;;5.22;3.20;;;12.80;99.90;;;;;;4993369;28;20582;-89
2023/03/24 06:50:20;;;;;;;5.55;3.53;;;12.90;99.90;;;;;;4995029;28;20165;-90
2023/03/24 06:52:46;;;;;;;6.30;3.50;;;12.80;99.90;;;;;;4994972;28;20530;-91
2023/03/24 06:55:12;;;;;;;6.10;3.55;;;12.80;99.90;;;;;;4994826;28;20164;-88
2023/03/24 06:57:38;;;;;;;4.85;3.60;;;12.80;99.90;;;;;;4995097;28;20222;-89
2023/03/24 07:00:05;;;;;;;4.28;3.50;;;12.80;99.90;;;;;;4994297;28;20215;-87
2023/03/24 07:02:34;;;;;;;7.65;3.67;;;12.70;99.90;;;;;;5011747;28;20182;-86
2023/03/24 07:05:06;;;;;;;4.80;3.53;;;12.60;99.90;;;;;;5019892;28;20273;-89
2023/03/24 07:07:32;;;;;;;3.45;3.10;;;12.60;99.90;;;;;;5038013;28;20159;-89
2023/03/24 07:09:58;;;;;;;5.93;3.50;;;12.60;99.90;;;;;;5037680;28;20206;-87
2023/03/24 07:12:24;;;;;;;6.47;3.38;;;12.60;99.90;;;;;;5037763;28;20643;-93
2023/03/24 07:14:51;;;;;;;5.00;3.22;;;12.60;99.90;;;;;;5035951;28;20210;-87
2023/03/24 07:17:17;;;;;;;3.45;2.92;;;12.60;99.90;;;;;;5016430;28;20275;-92
2023/03/24 07:19:44;;;;;;;4.15;3.17;;;12.60;99.90;;;;;;4991847;28;20874;-93
2023/03/24 07:22:11;;;;;;;5.05;3.60;;;12.50;99.90;;;;;;5012159;28;20167;-90
2023/03/24 07:24:36;;;;;;;4.00;3.50;;;12.50;99.90;;;;;;5008347;28;20267;-90
2023/03/24 07:27:03;;;;;;;5.93;3.10;;;12.50;99.90;;;;;;5014913;28;20741;-91
2023/03/24 07:29:29;;;;;;;8.10;3.15;;;12.60;99.90;;;;;;5006118;28;20223;-85
2023/03/24 07:31:57;;;;;;;4.03;3.05;;;12.60;99.90;;;;;;4980405;28;20191;-90
2023/03/24 07:34:27;;;;;;;9.90;3.40;;;12.70;99.90;;;;;;4997797;28;20172;-87
2023/03/24 07:36:53;;;;;;;4.43;3.33;;;12.60;99.90;;;;;;5018477;28;20182;-85
2023/03/24 07:39:19;;;;;;;4.28;3.33;;;12.60;99.90;;;;;;4998743;28;20652;-89
2023/03/24 07:41:45;;;;;;;4.38;3.35;;;12.60;99.90;;;;;;4997889;28;20239;-89
2023/03/24 07:44:12;;;;;;;4.47;3.40;;;12.50;99.90;;;;;;4997392;28;20176;-90
2023/03/24 07:46:38;;;;;;;5.80;3.33;;;12.50;99.90;;;;;;4996177;28;20188;-86
2023/03/24 07:49:04;;;;;;;5.97;3.15;;;12.40;99.90;;;;;;4996886;28;20176;-84
2023/03/24 07:51:29;;;;;;;4.80;3.15;;;12.40;99.90;;;;;;4979467;28;20740;-90
2023/03/24 07:53:55;;;;;;;3.92;2.42;;;12.40;99.90;;;;;;5002536;28;20273;-85
2023/03/24 07:56:21;;;;;;;2.85;2.40;;;12.40;99.90;;;;;;5004255;28;20180;-91
2023/03/24 07:58:47;;;;;;;3.03;2.33;;;12.40;99.90;;;;;;4996921;28;20593;-84
2023/03/24 08:01:13;;;;;;;3.90;2.15;;;12.30;99.90;;;;;;4997107;28;20208;-85
2023/03/24 08:03:39;;;;;;;3.33;2.20;;;12.30;99.90;;;;;;4997374;28;20168;-84
2023/03/24 08:06:06;;;;;;;2.45;1.95;;;12.40;99.90;;;;;;5004813;28;20269;-85
2023/03/24 08:08:33;;;;;;;2.58;2.10;;;12.40;99.90;;;;;;5036255;28;20602;-83
2023/03/24 08:10:59;;;;;;;2.47;1.70;;;12.40;99.90;;;;;;5012103;28;20187;-85
2023/03/24 08:13:25;;;;;;;2.33;1.73;;;12.50;99.90;;;;;;4998331;28;20207;-86
2023/03/24 08:15:54;;;;;;;4.45;1.80;;;12.50;99.90;;;;;;4995673;28;20176;-86
2023/03/24 08:18:20;;;;;;;3.08;1.50;;;12.50;99.90;;;;;;4996610;28;20207;-86
2023/03/24 08:20:48;;;;;;;1.50;1.27;;;12.60;99.90;;;;;;4996580;28;20208;-86
2023/03/24 08:23:16;;;;;;;1.88;1.23;;;12.60;99.90;;;;;;4996644;28;20168;-83
2023/03/24 08:25:42;;;;;;;2.95;1.27;;;12.70;99.90;;;;;;4996568;28;20172;-86
2023/03/24 08:28:08;;;;;;;5.93;1.27;;;12.80;99.90;;;;;;4996606;28;20184;-88
2023/03/24 08:30:34;;;;;;;1.52;1.10;;;12.80;99.90;;;;;;4996404;28;20247;-85
2023/03/24 08:33:02;;;;;;;2.33;1.10;;;12.80;99.90;;;;;;4996474;28;20226;-85
2023/03/24 08:35:32;;;;;;;1.60;0.98;;;12.80;99.90;;;;;;4996678;28;20184;-91
2023/03/24 08:37:58;;;;;;;2.58;1.10;;;12.70;99.90;;;;;;5015181;28;20270;-87
2023/03/24 08:40:25;;;;;;;0.95;0.90;;;12.70;99.90;;;;;;5015770;28;20257;-87
2023/03/24 08:42:58;;;;;;;2.33;1.10;;;12.80;99.90;;;;;;5015892;28;20570;-85
2023/03/24 08:45:27;;;;;;;2.28;1.00;;;12.80;99.90;;;;;;5016121;28;20527;-87
2023/03/24 08:47:54;;;;;;;1.08;0.90;;;12.80;99.90;;;;;;5015836;28;20298;-84
2023/03/24 08:50:22;;;;;;;2.15;1.00;;;12.90;99.90;;;;;;5013399;28;20601;-85
2023/03/24 08:52:49;;;;;;;1.15;0.93;;;13.00;99.90;;;;;;5014550;28;20175;-84
2023/03/24 08:55:16;;;;;;;0.98;0.70;;;13.00;99.90;;;;;;4998245;28;20171;-86
2023/03/24 08:57:42;;;;;;;2.15;0.95;;;13.00;99.90;;;;;;5015580;28;20700;-85
2023/03/24 09:00:14;;;;;;;1.33;1.08;;;13.00;99.90;;;;;;4995884;28;20305;-83
2023/03/24 09:02:51;;;;;;;1.67;0.77;;;13.00;99.90;;;;;;5015249;28;20168;-85
2023/03/24 09:05:20;;;;;;;2.25;0.85;;;13.20;99.90;;;;;;5015535;28;20178;-84
2023/03/24 09:07:47;;;;;;;2.47;0.90;;;13.10;99.90;;;;;;5015534;28;20629;-86
2023/03/24 09:10:14;;;;;;;3.13;1.10;;;13.10;99.90;;;;;;5015586;28;20183;-85
2023/03/24 09:12:41;;;;;;;1.63;0.95;;;13.20;99.90;;;;;;5008845;28;20184;-90
2023/03/24 09:15:08;;;;;;;1.15;0.82;;;13.40;99.90;;;;;;4995188;28;20188;-85
2023/03/24 09:17:34;;;;;;;6.47;0.82;;;13.60;99.90;;;;;;4994776;28;20176;-83
2023/03/24 09:20:06;;;;;;;1.58;0.93;;;13.80;99.90;;;;;;4995284;28;20517;-83
2023/03/24 09:22:32;;;;;;;1.27;0.80;;;13.90;99.90;;;;;;4994782;28;20226;-85
2023/03/24 09:24:58;;;;;;;3.60;0.88;;;14.10;99.90;;;;;;4995493;28;20179;-88
2023/03/24 09:27:23;;;;;;;4.05;0.93;;;14.20;99.90;;;;;;4994316;28;20270;-83
2023/03/24 09:29:49;;;;;;;2.60;0.70;;;14.30;99.90;;;;;;5000684;28;20231;-87
2023/03/24 09:32:15;;;;;;;1.08;0.90;;;14.40;99.90;;;;;;5015096;28;20518;-84
2023/03/24 09:34:40;;;;;;;3.20;0.75;;;14.30;99.90;;;;;;5015040;28;20245;-84
2023/03/24 09:37:06;;;;;;;2.42;0.70;;;14.40;99.90;;;;;;5015598;28;20179;-84
2023/03/24 09:39:35;;;;;;;4.88;0.85;;;14.40;99.90;;;;;;5015778;28;20245;-88
2023/03/24 09:42:04;;;;;;;2.72;0.80;;;14.10;99.90;;;;;;5014860;28;20234;-84
2023/03/24 09:44:39;;;;;;;2.38;1.00;;;14.20;99.90;;;;;;5014753;28;20572;-84
2023/03/24 09:47:15;;;;;;;3.20;0.93;;;14.30;99.90;;;;;;5015159;28;20174;-84
2023/03/24 09:49:41;;;;;;;2.08;0.80;;;14.40;99.90;;;;;;5014085;28;20217;-83
2023/03/24 09:52:12;;;;;;;4.70;1.00;;;14.20;99.90;;;;;;5014522;28;20175;-82
2023/03/24 09:54:54;;;;;;;3.25;1.00;;;14.00;99.90;;;;;;5014784;28;20171;-86
2023/03/24 09:57:27;;;;;;;1.85;0.70;;;14.00;99.90;;;;;;5014364;28;20179;-84
2023/03/24 09:59:53;;;;;;;5.00;0.70;;;13.90;99.90;;;;;;5014011;28;20270;-85
2023/03/24 10:02:20;;;;;;;1.98;0.75;;;14.00;99.90;;;;;;5014257;28;20222;-84
2023/03/24 10:04:47;;;;;;;4.82;1.00;;;14.00;99.90;;;;;;5014441;28;20182;-85
2023/03/24 10:07:46;;;;;;;4.28;0.80;;;14.00;99.90;;;;;;5014800;28;20179;-83
2023/03/24 10:10:41;;;;;;;5.05;1.00;;;13.90;99.90;;;;;;4983661;28;20183;-83
2023/03/24 10:13:24;;;;;;;3.58;1.10;;;13.90;99.90;;;;;;4988905;28;20575;-88
2023/03/24 10:16:33;;;;;;;4.38;1.10;;;13.80;99.90;;;;;;5014453;28;20253;-87
2023/03/24 10:19:28;;;;;;;3.42;0.88;;;13.70;99.90;;;;;;4993187;28;20652;-92
2023/03/24 10:22:04;;;;;;;4.28;0.90;;;13.70;99.90;;;;;;4974269;28;20662;-91
2023/03/24 10:24:52;;;;;;;2.03;0.90;;;13.60;99.90;;;;;;4995234;28;20197;-87
2023/03/24 10:27:27;;;;;;;5.18;1.10;;;13.60;99.90;;;;;;4997247;28;20171;-84
2023/03/24 10:30:43;;;;;;;4.18;1.17;;;13.50;99.90;;;;;;4994942;28;20230;-90
2023/03/24 10:33:11;;;;;;;5.22;1.02;;;13.50;99.90;;;;;;4955338;28;20520;-89
2023/03/24 10:35:42;;;;;;;5.55;0.80;;;13.60;99.90;;;;;;5012672;28;20238;-85
2023/03/24 10:38:17;;;;;;;6.15;1.20;;;13.70;99.90;;;;;;5013392;28;20171;-87
2023/03/24 10:40:44;;;;;;;3.38;1.48;;;13.80;99.90;;;;;;4996233;28;20207;-93
2023/03/24 10:43:10;;;;;;;7.68;1.42;;;13.80;99.90;;;;;;5014148;28;20265;-84
2023/03/24 10:45:39;;;;;;;6.00;1.50;;;13.80;99.90;;;;;;4981459;28;20182;-86
2023/03/24 10:48:06;;;;;;;4.40;1.58;;;13.80;99.90;;;;;;4989648;28;20226;-87
2023/03/24 10:50:34;;;;;;;4.57;1.35;;;13.90;99.90;;;;;;4977488;28;20172;-87
2023/03/24 10:53:07;;;;;;;5.75;1.30;;;13.90;99.90;;;;;;4982553;28;20176;-86
2023/03/24 10:55:42;;;;;;;3.60;1.13;;;13.70;99.90;;;;;;4984151;28;20188;-86
2023/03/24 10:58:18;;;;;;;4.40;1.20;;;13.60;99.90;;;;;;4983584;28;20635;-85
2023/03/24 11:00:44;;;;;;;2.70;1.42;;;13.60;99.90;;;;;;4991245;28;20544;-85
2023/03/24 11:03:20;;;;;;;4.90;1.42;;;13.60;99.90;;;;;;4993744;28;20259;-88
2023/03/24 11:05:46;;;;;;;9.52;2.20;;;13.60;99.90;;;;;;4976766;28;20234;-85
2023/03/24 11:08:34;;;;;;;4.60;1.70;;;13.70;99.90;;;;;;4993998;28;20172;-86
2023/03/24 11:11:11;;;;;;;3.72;1.45;;;13.70;99.90;;;;;;4993855;28;20243;-86
2023/03/24 11:13:37;;;;;;;6.80;1.60;;;13.80;99.90;;;;;;4986611;28;20226;-85
2023/03/24 11:16:16;;;;;;;6.25;1.70;;;13.70;99.90;;;;;;4982813;28;20184;-84
2023/03/24 11:19:00;;;;;;;5.70;1.58;;;13.60;99.90;;;;;;4993099;28;20218;-84
2023/03/24 11:21:36;;;;;;;5.25;1.80;;;13.50;99.90;;;;;;4993922;28;20286;-85
2023/03/24 11:24:09;;;;;;;5.30;1.52;;;13.80;99.90;;;;;;4978239;28;20171;-93
2023/03/24 11:26:37;;;;;;;6.43;1.65;;;14.10;99.90;;;;;;5013630;28;20547;-85
2023/03/24 11:29:29;;;;;;;6.50;1.70;;;14.10;99.90;;;;;;5017831;28;20207;-85
2023/03/24 11:31:58;;;;;;;9.30;1.95;;;14.10;99.90;;;;;;5033195;28;20179;-85
2023/03/24 11:34:41;;;;;;;5.80;1.80;;;14.00;99.90;;;;;;5015839;28;20183;-84
2023/03/24 11:37:29;;;;;;;6.57;1.70;;;14.00;99.90;;;;;;5033177;28;20201;-85
2023/03/24 11:40:24;;;;;;;7.28;1.45;;;13.90;99.90;;;;;;5032836;28;20183;-84
2023/03/24 11:43:02;;;;;;;5.13;1.50;;;13.90;99.90;;;;;;5016217;28;20187;-85
2023/03/24 11:45:33;;;;;;;9.70;1.50;;;13.80;99.90;;;;;;5033679;28;20253;-85
2023/03/24 11:48:03;;;;;;;8.30;2.25;;;13.70;99.90;;;;;;5032772;28;20169;-88
2023/03/24 11:50:34;;;;;;;3.70;1.42;;;13.80;99.90;;;;;;5013696;28;20303;-87
2023/03/24 11:53:23;;;;;;;7.70;1.95;;;13.80;99.90;;;;;;5016448;28;20168;-87
2023/03/24 11:56:12;;;;;;;6.10;1.70;;;13.80;99.90;;;;;;5032808;28;20605;-88
2023/03/24 11:58:46;;;;;;;6.45;1.80;;;13.80;99.90;;;;;;5036494;28;20657;-84
2023/03/24 12:01:20;;;;;;;5.97;1.40;;;13.80;99.90;;;;;;5034760;28;20228;-86
2023/03/24 12:04:14;;;;;;;5.88;1.70;;;13.90;99.90;;;;;;5036605;28;20321;-87
2023/03/24 12:07:06;;;;;;;6.15;1.50;;;14.30;99.90;;;;;;5030036;28;20194;-86
2023/03/24 12:09:52;;;;;;;7.60;1.85;;;14.90;99.90;;;;;;5006859;28;20546;-83
2023/03/24 12:12:36;;;;;;;9.55;1.90;;;15.10;99.90;;;;;;4996989;28;20188;-83
2023/03/24 12:15:31;;;;;;;4.30;1.45;;;15.00;99.90;;;;;;4996969;28;20254;-84
2023/03/24 12:18:37;;;;;;;5.65;1.80;;;14.90;99.90;;;;;;4997029;28;20194;-83
2023/03/24 12:21:10;;;;;;;7.28;1.90;;;14.80;99.90;;;;;;4983388;28;20230;-84
2023/03/24 12:23:58;;;;;;;5.35;1.80;;;14.70;99.90;;;;;;4997256;28;20236;-89
2023/03/24 12:26:26;;;;;;;8.30;2.22;;;14.70;99.90;;;;;;5000744;28;20167;-91
2023/03/24 12:28:58;;;;;;;5.95;1.60;;;14.60;99.90;;;;;;5016392;28;20198;-89
2023/03/24 12:31:38;;;;;;;8.85;1.52;;;14.50;99.90;;;;;;5026321;28;20257;-87
2023/03/24 12:34:32;;;;;;;7.97;1.48;;;14.70;99.90;;;;;;4999044;28;20273;-87
2023/03/24 12:37:17;;;;;;;9.38;1.85;;;14.90;99.90;;;;;;5016349;28;20159;-87
2023/03/24 12:40:05;;;;;;;4.22;1.30;;;15.00;99.90;;;;;;5016467;28;20177;-87
2023/03/24 12:42:39;;;;;;;2.83;1.27;;;14.90;99.90;;;;;;4999520;28;20203;-87
2023/03/24 12:45:08;;;;;;;5.85;1.95;;;14.70;99.90;;;;;;5015818;28;20165;-90
2023/03/24 12:48:15;;;;;;;7.90;1.75;;;14.60;99.90;;;;;;5016190;28;20496;-88
2023/03/24 12:51:09;;;;;;;4.75;1.25;;;14.60;99.90;;;;;;4913421;28;20221;-87
2023/03/24 12:53:59;;;;;;;7.30;1.40;;;14.60;99.90;;;;;;5015799;28;20171;-87
2023/03/24 12:56:44;;;;;;;6.30;1.70;;;14.60;99.90;;;;;;5003476;28;20222;-86
2023/03/24 12:59:15;;;;;;;4.82;1.40;;;14.80;99.90;;;;;;4996035;28;20168;-86
2023/03/24 13:01:45;;;;;;;5.65;1.58;;;14.70;99.90;;;;;;4995577;28;20200;-93
2023/03/24 13:04:21;;;;;;;7.32;1.60;;;14.50;99.90;;;;;;4996400;28;20171;-87
2023/03/24 13:06:58;;;;;;;7.57;1.88;;;14.40;99.90;;;;;;4995061;28;20203;-88
2023/03/24 13:09:54;;;;;;;6.28;1.25;;;14.50;99.90;;;;;;4978888;28;20507;-87
2023/03/24 13:12:25;;;;;;;4.68;1.27;;;14.60;99.90;;;;;;4995845;28;20230;-87
2023/03/24 13:15:10;;;;;;;5.18;1.63;;;14.60;99.90;;;;;;4996006;28;20164;-86
2023/03/24 13:17:54;;;;;;;5.38;1.20;;;14.50;99.90;;;;;;4996291;28;20164;-89